createdAt,value
2017-07-22T08:56:12.323Z,50.50
2017-07-22T08:58:42.603Z,53.03
2017-07-22T09:01:20.649Z,48.03
2017-07-22T09:03:50.687Z,47.27
2017-07-22T09:06:31.463Z,55.47
2017-07-22T09:09:01.927Z,41.97
2017-07-22T09:11:40.007Z,44.87
2017-07-22T09:14:20.727Z,42.00
2017-07-22T09:16:51.118Z,40.97
2017-07-22T09:19:22.342Z,36.57
2017-07-22T09:21:53.101Z,37.00
2017-07-22T09:24:24.145Z,38.23
2017-07-22T09:26:57.455Z,34.97
2017-07-22T09:29:28.004Z,37.93
2017-07-22T09:31:58.605Z,41.30
2017-07-22T09:34:37.574Z,34.83
2017-07-22T09:37:18.403Z,35.87
2017-07-22T09:39:58.719Z,51.13
2017-07-22T09:42:39.747Z,36.63
2017-07-22T09:45:20.176Z,38.73
2017-07-22T09:47:51.783Z,43.23
2017-07-22T09:50:30.078Z,30.77
2017-07-22T09:53:08.903Z,37.27
2017-07-22T09:55:46.102Z,34.40
2017-07-22T09:58:24.286Z,34.67
2017-07-22T10:01:02.662Z,31.83
2017-07-22T10:03:42.910Z,48.20
2017-07-22T10:06:22.129Z,31.93
2017-07-22T10:09:00.102Z,38.10
2017-07-22T10:11:38.583Z,28.00
2017-07-22T10:14:17.635Z,28.80
2017-07-22T10:16:55.980Z,26.97
2017-07-22T10:19:34.986Z,38.40
2017-07-22T10:22:13.319Z,27.53
2017-07-22T10:24:53.418Z,21.33
2017-07-22T10:27:31.316Z,27.10
2017-07-22T10:30:10.337Z,25.07
2017-07-22T10:32:49.379Z,27.13
2017-07-22T10:35:29.019Z,22.57
2017-07-22T10:38:06.308Z,25.17
2017-07-22T10:40:44.340Z,21.77
2017-07-22T10:43:23.439Z,25.70
2017-07-22T10:46:02.434Z,27.97
2017-07-22T10:48:41.399Z,21.77
2017-07-22T10:51:18.151Z,20.70
2017-07-22T10:53:56.063Z,23.33
2017-07-22T10:56:36.158Z,23.50
2017-07-22T10:59:15.716Z,19.27
2017-07-22T11:01:55.209Z,27.23
2017-07-22T11:04:33.701Z,26.73
2017-07-22T11:07:14.318Z,18.30
2017-07-22T11:09:52.421Z,22.43
2017-07-22T11:12:31.549Z,20.27
2017-07-22T11:15:09.607Z,15.10
2017-07-22T11:17:47.314Z,19.53
2017-07-22T11:20:25.700Z,26.90
2017-07-22T11:23:04.922Z,18.70
2017-07-22T11:25:42.743Z,21.40
2017-07-22T11:28:23.009Z,14.47
2017-07-22T11:30:59.537Z,25.03
2017-07-22T11:33:38.796Z,17.73
2017-07-22T11:36:16.384Z,15.13
2017-07-22T11:38:55.219Z,18.87
2017-07-22T11:41:33.110Z,17.00
2017-07-22T11:44:11.960Z,14.67
2017-07-22T11:46:50.381Z,13.60
2017-07-22T11:49:29.649Z,14.40
2017-07-22T11:52:07.837Z,12.53
2017-07-22T11:54:46.556Z,12.77
2017-07-22T11:57:25.197Z,15.43
2017-07-22T12:00:04.033Z,13.73
2017-07-22T12:02:42.213Z,11.50
2017-07-22T12:05:12.777Z,14.70
2017-07-22T12:07:43.037Z,12.47
2017-07-22T12:10:13.327Z,11.97
2017-07-22T12:12:43.987Z,17.73
2017-07-22T12:15:14.347Z,15.57
2017-07-22T12:17:45.077Z,17.00
2017-07-22T12:20:15.637Z,13.07
2017-07-22T12:22:46.227Z,10.13
2017-07-22T12:25:16.647Z,13.13
2017-07-22T12:27:47.602Z,11.00
2017-07-22T12:30:18.047Z,11.20
2017-07-22T12:32:57.718Z,12.43
2017-07-22T12:35:36.651Z,15.10
2017-07-22T12:38:15.276Z,10.87
2017-07-22T12:40:53.259Z,11.10
2017-07-22T12:43:32.385Z,7.37
2017-07-22T12:46:10.897Z,10.20
2017-07-22T12:48:50.034Z,9.73
2017-07-22T12:51:28.467Z,9.30
2017-07-22T12:54:07.445Z,12.63
2017-07-22T12:56:45.610Z,12.10
2017-07-22T12:59:23.397Z,9.60
2017-07-22T13:02:01.389Z,9.50
2017-07-22T13:04:40.798Z,9.07
2017-07-22T13:07:17.849Z,9.23
2017-07-22T13:09:57.519Z,10.20
2017-07-22T13:12:35.820Z,9.43
2017-07-22T13:15:12.810Z,10.10
2017-07-22T13:17:50.998Z,8.57
2017-07-22T13:20:30.129Z,8.50
2017-07-22T13:23:08.556Z,9.60
2017-07-22T13:25:47.927Z,9.13
2017-07-22T13:28:26.854Z,9.33
2017-07-22T13:31:06.104Z,17.60
2017-07-22T13:33:44.744Z,8.27
2017-07-22T13:36:23.287Z,8.40
2017-07-22T13:39:01.784Z,11.40
2017-07-22T13:41:40.459Z,8.57
2017-07-22T13:44:18.554Z,6.37
2017-07-22T13:46:57.247Z,6.87
2017-07-22T13:49:35.874Z,6.30
2017-07-22T13:52:15.635Z,6.90
2017-07-22T13:54:53.333Z,6.50
2017-07-22T13:57:31.407Z,6.70
2017-07-22T14:00:09.816Z,8.53
2017-07-22T14:02:48.990Z,9.90
2017-07-22T14:05:26.188Z,5.40
2017-07-22T14:07:56.921Z,7.53
2017-07-22T14:10:33.051Z,12.43
2017-07-22T14:13:04.218Z,10.83
2017-07-22T14:15:43.823Z,5.80
2017-07-22T14:18:14.267Z,27.53
2017-07-22T14:20:50.419Z,7.60
2017-07-22T14:23:30.543Z,7.20
2017-07-22T14:26:09.477Z,12.10
2017-07-22T14:28:49.669Z,12.87
2017-07-22T14:31:29.247Z,6.47
2017-07-22T14:34:08.075Z,9.00
2017-07-22T14:36:46.339Z,14.20
2017-07-22T14:39:22.901Z,9.23
2017-07-22T14:42:01.600Z,16.40
2017-07-22T14:44:42.839Z,8.50
2017-07-22T14:47:23.298Z,12.60
2017-07-22T14:50:01.309Z,7.07
2017-07-22T14:52:36.737Z,8.43
2017-07-22T14:55:16.381Z,6.10
2017-07-22T14:57:46.877Z,11.17
2017-07-22T15:00:17.683Z,8.03
2017-07-22T15:02:49.107Z,11.27
2017-07-22T15:05:29.143Z,4.90
2017-07-22T15:08:06.557Z,9.33
2017-07-22T15:10:46.988Z,4.77
2017-07-22T15:13:26.574Z,5.90
2017-07-22T15:16:04.612Z,6.83
2017-07-22T15:18:41.567Z,12.00
2017-07-22T15:21:21.095Z,8.40
2017-07-22T15:24:01.026Z,17.90
2017-07-22T15:26:40.977Z,17.97
2017-07-22T15:29:21.593Z,11.67
2017-07-22T15:32:00.578Z,21.90
2017-07-22T15:34:38.934Z,36.73
2017-07-22T15:37:18.658Z,19.57
2017-07-22T15:39:48.957Z,18.67
2017-07-22T15:42:34.789Z,19.90
2017-07-22T15:45:14.513Z,16.50
2017-07-22T15:47:55.615Z,20.77
2017-07-22T15:50:34.177Z,23.13
2017-07-22T15:53:13.983Z,28.03
2017-07-22T15:55:52.003Z,15.80
2017-07-22T15:58:31.592Z,11.60
2017-07-22T16:01:10.382Z,14.33
2017-07-22T16:03:50.877Z,12.63
2017-07-22T16:06:21.041Z,13.53
2017-07-22T16:08:59.847Z,16.90
2017-07-22T16:11:38.435Z,13.53
2017-07-22T16:14:17.260Z,8.30
2017-07-22T16:16:55.900Z,11.63
2017-07-22T16:19:35.085Z,4.20
2017-07-22T16:22:13.294Z,7.90
2017-07-22T16:24:53.626Z,11.87
2017-07-22T16:27:33.854Z,9.57
2017-07-22T16:30:13.860Z,7.73
2017-07-22T16:32:53.221Z,13.20
2017-07-22T16:35:33.094Z,11.13
2017-07-22T16:38:11.512Z,6.77
2017-07-22T16:40:49.935Z,11.37
2017-07-22T16:43:27.818Z,6.37
2017-07-22T16:46:07.165Z,5.80
2017-07-22T16:48:44.152Z,7.47
2017-07-22T16:51:20.684Z,6.47
2017-07-22T16:53:58.914Z,9.07
2017-07-22T16:56:29.736Z,6.73
2017-07-22T16:59:07.915Z,7.30
2017-07-22T17:01:47.292Z,10.10
2017-07-22T17:04:25.345Z,3.73
2017-07-22T17:07:05.731Z,35.80
2017-07-22T17:09:43.163Z,4.63
2017-07-22T17:12:13.577Z,7.40
2017-07-22T17:14:43.946Z,4.97
2017-07-22T17:17:16.837Z,3.57
2017-07-22T17:19:54.383Z,8.43
2017-07-22T17:22:25.015Z,3.43
2017-07-22T17:25:04.554Z,6.90
2017-07-22T17:27:45.751Z,3.47
2017-07-22T17:30:25.463Z,7.90
2017-07-22T17:33:06.930Z,2.60
2017-07-22T17:35:43.597Z,4.33
2017-07-22T17:38:24.456Z,4.37
2017-07-22T17:41:03.829Z,5.50
2017-07-22T17:43:34.488Z,8.67
2017-07-22T17:46:20.990Z,6.78
2017-07-22T17:48:51.321Z,13.47
2017-07-22T17:51:25.960Z,6.60
2017-07-22T17:53:56.537Z,9.77
2017-07-22T17:56:35.020Z,24.57
